Time;durP1;ratioP1;P1;durP2;ratioP2;P2;SDS_P1;SDS_P2;PMS_P1;PMS_P2;Temp;Humidity;BMP_temperature;BMP_pressure;BME280_temperature;BME280_humidity;BME280_pressure;Samples;Min_cycle;Max_cycle;Signal;HPM_P1;HPM_P2
2022/05/23 00:01:47;;;;;;;1.98;1.00;;;22.10;54.10;;;;;;4971543;28;20027;-74
2022/05/23 00:04:13;;;;;;;2.08;1.33;;;22.00;54.10;;;;;;4972024;28;20070;-74
2022/05/23 00:06:39;;;;;;;1.98;1.30;;;22.00;54.10;;;;;;4972310;28;20025;-74
2022/05/23 00:09:06;;;;;;;1.35;1.10;;;22.00;54.10;;;;;;4971990;28;20049;-75
2022/05/23 00:11:31;;;;;;;1.27;1.00;;;22.00;54.10;;;;;;4970486;28;20396;-75
2022/05/23 00:13:58;;;;;;;1.50;1.20;;;21.90;54.70;;;;;;4971905;28;20061;-74
2022/05/23 00:16:33;;;;;;;1.27;1.05;;;21.90;54.10;;;;;;4971932;28;20038;-73
2022/05/23 00:18:59;;;;;;;1.55;0.95;;;21.90;54.10;;;;;;4970679;28;20054;-73
2022/05/23 00:21:25;;;;;;;1.50;1.08;;;21.90;54.20;;;;;;4970558;28;20069;-74
2022/05/23 00:23:51;;;;;;;1.95;1.17;;;21.90;54.20;;;;;;4970280;28;20740;-74
2022/05/23 00:26:20;;;;;;;2.03;1.30;;;21.90;54.20;;;;;;4954415;28;20037;-75
2022/05/23 00:28:46;;;;;;;1.42;1.10;;;21.80;54.20;;;;;;4970466;28;20156;-73
2022/05/23 00:31:12;;;;;;;1.48;1.30;;;21.80;54.20;;;;;;4971702;28;20038;-73
2022/05/23 00:36:32;;;;;;;1.85;0.93;;;21.80;54.30;;;;;;4955383;28;20061;-73
2022/05/23 00:38:58;;;;;;;2.53;1.20;;;21.80;54.40;;;;;;4971321;28;20022;-73
2022/05/23 00:44:27;;;;;;;2.03;1.20;;;21.70;54.50;;;;;;4970282;28;20117;-73
2022/05/23 00:46:59;;;;;;;1.73;1.10;;;21.70;54.40;;;;;;4969264;28;20023;-74
2022/05/23 00:49:37;;;;;;;1.55;1.00;;;21.60;54.40;;;;;;4971132;28;20030;-74
2022/05/23 00:52:10;;;;;;;1.48;1.23;;;21.60;54.50;;;;;;4970123;28;20474;-73
2022/05/23 00:54:41;;;;;;;1.50;1.20;;;21.50;54.40;;;;;;4971615;28;20467;-73
2022/05/23 00:57:11;;;;;;;1.50;1.00;;;21.60;54.50;;;;;;4954174;28;20054;-73
2022/05/23 00:59:38;;;;;;;1.65;1.05;;;21.50;54.50;;;;;;4970339;28;20021;-74
2022/05/23 01:02:04;;;;;;;1.88;1.20;;;21.50;54.50;;;;;;4969754;28;20023;-73
2022/05/23 01:04:38;;;;;;;2.50;1.23;;;21.50;54.50;;;;;;4967815;28;20054;-73
2022/05/23 01:07:05;;;;;;;1.70;1.20;;;21.50;54.50;;;;;;4970689;28;20534;-75
2022/05/23 01:09:31;;;;;;;2.08;1.20;;;21.40;54.50;;;;;;4953546;28;20035;-76
2022/05/23 01:11:59;;;;;;;1.92;1.23;;;21.50;54.60;;;;;;4969380;28;20030;-74
2022/05/23 01:14:26;;;;;;;1.65;1.10;;;21.40;54.60;;;;;;4961967;28;20054;-74
2022/05/23 01:16:52;;;;;;;1.92;1.13;;;21.40;54.60;;;;;;4971021;28;20030;-74
2022/05/23 01:19:18;;;;;;;2.28;1.30;;;21.40;54.60;;;;;;4953566;28;20122;-73
2022/05/23 01:21:59;;;;;;;2.78;1.35;;;21.40;54.60;;;;;;4950678;28;20023;-74
2022/05/23 01:24:44;;;;;;;1.73;1.20;;;21.40;54.70;;;;;;4968510;28;20045;-74
2022/05/23 01:27:11;;;;;;;1.40;1.10;;;21.30;54.60;;;;;;4959572;28;20053;-74
2022/05/23 01:29:42;;;;;;;1.75;1.20;;;21.30;54.70;;;;;;4953844;28;20023;-73
2022/05/23 01:32:14;;;;;;;1.40;1.20;;;21.30;54.70;;;;;;4954791;28;20023;-72
2022/05/23 01:34:44;;;;;;;1.20;1.10;;;21.30;54.70;;;;;;5001086;28;20066;-74
2022/05/23 01:37:13;;;;;;;1.08;1.00;;;21.20;54.70;;;;;;4969414;28;20070;-72
2022/05/23 01:39:52;;;;;;;2.00;1.25;;;21.20;54.80;;;;;;4949543;28;20119;-73
2022/05/23 01:42:31;;;;;;;1.10;1.00;;;21.20;54.80;;;;;;4955026;28;20069;-76
2022/05/23 01:44:57;;;;;;;2.15;1.33;;;21.20;54.80;;;;;;4952749;28;20064;-73
2022/05/23 01:47:23;;;;;;;3.08;1.40;;;21.20;54.80;;;;;;4952987;28;20487;-73
2022/05/23 01:49:51;;;;;;;1.83;1.35;;;21.10;54.80;;;;;;4968986;28;20088;-73
2022/05/23 01:52:35;;;;;;;2.40;1.20;;;21.10;54.80;;;;;;4955089;28;20138;-74
2022/05/23 01:55:07;;;;;;;1.45;1.17;;;21.10;54.80;;;;;;4969259;28;20046;-74
2022/05/23 01:57:34;;;;;;;2.63;1.45;;;21.10;54.90;;;;;;4971060;28;20019;-73
2022/05/23 02:02:47;;;;;;;1.98;1.02;;;21.00;54.90;;;;;;4965430;28;20027;-76
2022/05/23 02:05:16;;;;;;;1.85;1.25;;;21.00;55.00;;;;;;4969332;28;20133;-75
2022/05/23 02:07:43;;;;;;;1.23;1.05;;;21.00;55.00;;;;;;4969214;28;20446;-73
2022/05/23 02:10:10;;;;;;;2.00;1.30;;;21.00;55.70;;;;;;4968986;28;20030;-74
2022/05/23 02:12:42;;;;;;;1.85;1.40;;;20.90;55.00;;;;;;4949788;28;20045;-73
2022/05/23 02:15:12;;;;;;;1.50;1.20;;;20.90;55.00;;;;;;4972574;28;20094;-74
2022/05/23 02:18:01;;;;;;;1.75;1.27;;;20.90;55.10;;;;;;4968527;28;20039;-73
2022/05/23 02:20:27;;;;;;;1.67;1.20;;;20.90;55.10;;;;;;4970264;28;20027;-73
2022/05/23 02:22:54;;;;;;;2.25;1.50;;;20.90;55.10;;;;;;4957465;28;20313;-73
2022/05/23 02:25:23;;;;;;;2.17;1.30;;;20.80;55.10;;;;;;4984128;28;20027;-74
2022/05/23 02:27:49;;;;;;;2.20;1.30;;;20.80;55.20;;;;;;4971918;28;20035;-74
2022/05/23 02:30:15;;;;;;;1.70;1.38;;;20.80;55.20;;;;;;4972694;28;20031;-73
2022/05/23 02:32:41;;;;;;;1.75;1.30;;;20.80;55.20;;;;;;4972242;28;20058;-73
2022/05/23 02:35:10;;;;;;;1.42;1.33;;;20.80;55.20;;;;;;4956966;28;20034;-73
2022/05/23 02:37:37;;;;;;;1.40;1.30;;;20.70;55.20;;;;;;4954294;28;20031;-73
2022/05/23 02:40:03;;;;;;;2.70;1.27;;;20.70;55.30;;;;;;4952640;29;20031;-73
2022/05/23 02:42:30;;;;;;;1.95;1.42;;;20.70;55.30;;;;;;4969077;28;20066;-73
2022/05/23 02:44:57;;;;;;;2.33;1.42;;;20.70;55.30;;;;;;4957748;28;20035;-74
2022/05/23 02:47:27;;;;;;;2.75;1.30;;;20.70;55.30;;;;;;4972324;28;20039;-73
2022/05/23 02:49:54;;;;;;;2.50;1.42;;;20.70;56.00;;;;;;4956262;28;20030;-73
2022/05/23 02:52:46;;;;;;;1.42;1.33;;;20.60;55.30;;;;;;4970266;28;20487;-73
2022/05/23 02:55:17;;;;;;;1.35;1.20;;;20.60;55.30;;;;;;4956781;28;20426;-74
2022/05/23 02:57:43;;;;;;;1.88;1.40;;;20.60;55.40;;;;;;4947211;28;20035;-74
2022/05/23 03:00:19;;;;;;;3.67;1.60;;;20.60;55.50;;;;;;4967832;28;20038;-73
2022/05/23 03:03:04;;;;;;;1.98;1.25;;;20.60;55.50;;;;;;4956244;28;20121;-73
2022/05/23 03:05:53;;;;;;;2.10;1.30;;;20.50;55.50;;;;;;4947571;28;20503;-74
2022/05/23 03:08:25;;;;;;;1.55;1.33;;;20.50;55.50;;;;;;4939911;28;20049;-72
2022/05/23 03:10:56;;;;;;;1.33;1.23;;;20.40;55.50;;;;;;4971587;28;20029;-73
2022/05/23 03:13:22;;;;;;;1.48;1.30;;;20.40;55.50;;;;;;4971447;28;20074;-73
2022/05/23 03:15:48;;;;;;;2.20;1.45;;;20.40;55.60;;;;;;4971641;28;20019;-75
2022/05/23 03:18:16;;;;;;;2.03;1.60;;;20.40;55.60;;;;;;4953969;28;20551;-74
2022/05/23 03:20:44;;;;;;;2.20;1.27;;;20.40;55.60;;;;;;4971442;28;20458;-74
2022/05/23 03:28:43;;;;;;;1.27;1.10;;;20.30;55.70;;;;;;4971164;28;20042;-73
2022/05/23 03:31:08;;;;;;;2.55;1.50;;;20.30;55.70;;;;;;4966396;28;20463;-74
2022/05/23 03:33:35;;;;;;;1.85;1.40;;;20.30;55.70;;;;;;4954949;28;20031;-74
2022/05/23 03:36:03;;;;;;;1.77;1.45;;;20.30;55.80;;;;;;4974609;28;20053;-74
2022/05/23 03:38:29;;;;;;;2.15;1.30;;;20.30;55.80;;;;;;4971503;28;20074;-73
2022/05/23 03:40:55;;;;;;;2.60;1.52;;;20.20;55.80;;;;;;4970488;28;20031;-74
2022/05/23 03:43:21;;;;;;;1.58;1.38;;;20.30;55.90;;;;;;4955105;28;20125;-73
2022/05/23 03:45:47;;;;;;;1.38;1.27;;;20.20;55.80;;;;;;4970839;28;20125;-76
2022/05/23 03:48:13;;;;;;;2.13;1.50;;;20.20;55.90;;;;;;4955385;28;20134;-73
2022/05/23 03:50:39;;;;;;;1.42;1.27;;;20.20;55.90;;;;;;4972639;28;20522;-73
2022/05/23 03:53:06;;;;;;;2.20;1.63;;;20.20;55.90;;;;;;4970715;28;20031;-73
2022/05/23 03:55:34;;;;;;;2.80;1.55;;;20.20;56.00;;;;;;4970855;28;20105;-73
2022/05/23 03:58:12;;;;;;;1.98;1.40;;;20.10;55.90;;;;;;4971325;28;20034;-73
2022/05/23 04:00:39;;;;;;;1.52;1.38;;;20.10;56.00;;;;;;4970928;28;20483;-74
2022/05/23 04:03:05;;;;;;;2.35;1.52;;;20.10;56.00;;;;;;4970529;28;20027;-73
2022/05/23 04:05:31;;;;;;;1.52;1.42;;;20.10;56.00;;;;;;4970672;28;20093;-73
2022/05/23 04:08:14;;;;;;;1.90;1.60;;;20.10;56.10;;;;;;4957371;28;20035;-74
2022/05/23 04:10:44;;;;;;;2.25;1.55;;;20.00;56.00;;;;;;4970637;28;20463;-73
2022/05/23 04:13:12;;;;;;;2.17;1.65;;;20.00;56.10;;;;;;4955734;28;20047;-74
2022/05/23 04:15:40;;;;;;;2.10;1.50;;;20.00;56.10;;;;;;4978077;28;20031;-74
2022/05/23 04:18:07;;;;;;;1.88;1.67;;;20.00;56.20;;;;;;4953291;28;20039;-74
2022/05/23 04:20:33;;;;;;;2.03;1.48;;;20.00;56.20;;;;;;4954755;28;20023;-73
2022/05/23 04:23:22;;;;;;;2.63;1.60;;;19.90;56.20;;;;;;4955539;28;20046;-73
2022/05/23 04:25:49;;;;;;;2.72;1.58;;;20.00;56.30;;;;;;4970437;28;20026;-74
2022/05/23 04:28:18;;;;;;;2.10;1.50;;;19.90;56.30;;;;;;4953802;28;20122;-74
2022/05/23 04:30:45;;;;;;;1.50;1.40;;;19.90;56.40;;;;;;4970381;28;20113;-74
2022/05/23 04:36:00;;;;;;;1.95;1.55;;;19.90;56.40;;;;;;4964451;28;20045;-74
2022/05/23 04:38:31;;;;;;;2.45;1.58;;;19.80;56.40;;;;;;4952253;28;20035;-73
2022/05/23 04:40:59;;;;;;;1.92;1.60;;;19.80;56.40;;;;;;4969770;28;20054;-73
2022/05/23 04:43:25;;;;;;;1.98;1.60;;;19.90;56.50;;;;;;4951309;28;20036;-73
2022/05/23 04:45:51;;;;;;;1.75;1.50;;;19.90;56.50;;;;;;4968942;28;20026;-74
2022/05/23 04:51:31;;;;;;;2.78;1.83;;;19.80;56.50;;;;;;4981462;28;20038;-73
2022/05/23 04:53:59;;;;;;;1.80;1.70;;;19.80;56.50;;;;;;4970059;28;20050;-74
2022/05/23 04:56:27;;;;;;;1.83;1.60;;;19.80;56.50;;;;;;4953876;28;20439;-73
2022/05/23 04:58:59;;;;;;;3.03;1.80;;;19.80;56.60;;;;;;4954432;28;20042;-74
2022/05/23 05:01:26;;;;;;;2.47;1.67;;;19.70;56.50;;;;;;4969472;28;20073;-74
2022/05/23 05:03:55;;;;;;;2.92;1.65;;;19.70;56.60;;;;;;4969637;28;20471;-75
2022/05/23 05:06:22;;;;;;;2.08;1.73;;;19.70;56.60;;;;;;4953953;28;20054;-75
2022/05/23 05:08:48;;;;;;;2.83;1.88;;;19.80;56.60;;;;;;4969859;28;20034;-74
2022/05/23 05:11:14;;;;;;;2.35;1.70;;;19.70;56.60;;;;;;4951740;28;20019;-73
2022/05/23 05:13:58;;;;;;;3.05;1.80;;;19.70;56.70;;;;;;4955705;28;20054;-73
2022/05/23 05:16:24;;;;;;;3.05;2.10;;;19.70;56.60;;;;;;4953242;28;20039;-73
2022/05/23 05:18:50;;;;;;;3.00;1.80;;;19.70;56.60;;;;;;4969437;28;20072;-73
2022/05/23 05:21:42;;;;;;;2.33;1.85;;;19.70;56.70;;;;;;4940101;28;20035;-74
2022/05/23 05:24:36;;;;;;;2.28;1.70;;;19.70;56.60;;;;;;4957207;28;20062;-73
2022/05/23 05:27:29;;;;;;;2.83;2.10;;;19.70;56.70;;;;;;4943916;28;20041;-73
2022/05/23 05:29:55;;;;;;;3.72;1.88;;;19.70;56.70;;;;;;4970070;28;20026;-74
2022/05/23 05:32:36;;;;;;;2.83;1.90;;;19.70;56.80;;;;;;4970800;28;20493;-74
2022/05/23 05:35:25;;;;;;;2.80;2.00;;;19.70;56.90;;;;;;4964523;28;20070;-75
2022/05/23 05:38:09;;;;;;;2.70;2.05;;;19.70;56.90;;;;;;4969976;28;20039;-73
2022/05/23 05:40:36;;;;;;;2.58;1.95;;;19.70;56.90;;;;;;4970532;28;20093;-74
2022/05/23 05:43:13;;;;;;;3.33;1.92;;;19.70;56.80;;;;;;4970444;28;20049;-74
2022/05/23 05:45:48;;;;;;;3.38;2.20;;;19.70;57.00;;;;;;4969680;28;20089;-74
2022/05/23 05:48:46;;;;;;;3.03;2.10;;;19.70;57.10;;;;;;4955089;28;20023;-74
2022/05/23 05:51:15;;;;;;;1.90;1.77;;;19.70;56.90;;;;;;4981938;28;20109;-73
2022/05/23 05:54:01;;;;;;;3.45;2.40;;;19.70;57.00;;;;;;4974399;28;20206;-73
2022/05/23 05:56:38;;;;;;;2.90;2.20;;;19.70;57.00;;;;;;4973613;28;20027;-73
2022/05/23 05:59:05;;;;;;;3.88;2.10;;;19.70;57.10;;;;;;4956249;28;20031;-74
2022/05/23 06:01:36;;;;;;;2.10;1.90;;;19.70;57.10;;;;;;4954819;28;20032;-74
2022/05/23 06:04:02;;;;;;;2.67;2.10;;;19.70;57.10;;;;;;4973313;28;20035;-74
2022/05/23 06:12:14;;;;;;;2.95;2.30;;;19.80;57.20;;;;;;4972438;28;20038;-73
2022/05/23 06:14:41;;;;;;;3.05;2.17;;;19.80;57.20;;;;;;4957155;28;20058;-73
2022/05/23 06:17:08;;;;;;;2.97;2.30;;;19.80;57.30;;;;;;4957497;28;20480;-73
2022/05/23 06:19:45;;;;;;;3.20;2.10;;;19.80;57.30;;;;;;4957513;28;20034;-74
2022/05/23 06:22:22;;;;;;;2.25;1.90;;;19.80;57.40;;;;;;4972253;28;20060;-74
2022/05/23 06:25:15;;;;;;;3.05;2.22;;;19.80;57.30;;;;;;4971259;28;20074;-73
2022/05/23 06:27:43;;;;;;;3.13;2.10;;;19.80;57.40;;;;;;4971618;28;20042;-74
2022/05/23 06:30:14;;;;;;;3.15;2.50;;;19.80;57.40;;;;;;4975394;28;20030;-74
2022/05/23 06:32:40;;;;;;;3.92;2.67;;;19.80;57.50;;;;;;4983479;28;20041;-75
2022/05/23 06:35:07;;;;;;;4.03;2.58;;;19.90;57.50;;;;;;4954678;28;20039;-73
2022/05/23 06:37:36;;;;;;;2.53;2.17;;;19.90;57.50;;;;;;4944363;28;20074;-73
2022/05/23 06:40:15;;;;;;;2.90;2.22;;;19.90;57.50;;;;;;4954322;28;20058;-72
2022/05/23 06:43:12;;;;;;;3.20;2.28;;;19.90;57.50;;;;;;4969064;28;20035;-74
2022/05/23 06:45:53;;;;;;;3.45;2.50;;;20.00;57.50;;;;;;4975074;28;20093;-74
2022/05/23 06:48:42;;;;;;;3.78;2.50;;;20.00;57.60;;;;;;4946382;28;20038;-73
2022/05/23 06:51:17;;;;;;;3.28;2.40;;;20.00;57.60;;;;;;4973654;28;20059;-73
2022/05/23 06:53:46;;;;;;;2.60;2.28;;;20.00;57.60;;;;;;4974582;28;20087;-74
2022/05/23 06:56:30;;;;;;;3.92;2.20;;;20.00;57.70;;;;;;4969142;28;20030;-74
2022/05/23 06:58:58;;;;;;;2.88;2.38;;;20.00;57.60;;;;;;4954649;28;20039;-74
2022/05/23 07:01:38;;;;;;;3.70;2.53;;;20.10;57.70;;;;;;4974851;28;20448;-74
2022/05/23 07:04:17;;;;;;;4.20;2.35;;;20.10;57.80;;;;;;4973530;28;20409;-75
2022/05/23 07:12:24;;;;;;;3.47;2.40;;;20.20;57.80;;;;;;4978983;28;20046;-74
2022/05/23 07:14:56;;;;;;;4.07;2.58;;;20.20;57.80;;;;;;4979663;28;20035;-74
2022/05/23 07:17:25;;;;;;;3.63;2.45;;;20.20;57.90;;;;;;4976743;28;20030;-74
2022/05/23 07:20:23;;;;;;;4.07;2.38;;;20.30;57.90;;;;;;4950096;28;20067;-74
2022/05/23 07:23:12;;;;;;;3.22;2.30;;;20.30;57.90;;;;;;4980685;28;20131;-75
2022/05/23 07:25:42;;;;;;;2.83;2.10;;;20.30;57.90;;;;;;4973428;28;20081;-74
2022/05/23 07:28:09;;;;;;;3.15;2.55;;;20.30;57.90;;;;;;4954152;28;20036;-74
2022/05/23 07:30:35;;;;;;;4.00;2.78;;;20.40;58.00;;;;;;4971568;28;20062;-74
2022/05/23 07:33:01;;;;;;;3.55;2.30;;;20.40;58.00;;;;;;4954255;28;20427;-74
2022/05/23 07:35:57;;;;;;;2.67;2.10;;;20.40;57.90;;;;;;4956130;28;20066;-74
2022/05/23 07:38:23;;;;;;;3.58;2.28;;;20.50;58.00;;;;;;4954478;28;20065;-74
2022/05/23 07:40:53;;;;;;;4.40;2.55;;;20.50;57.90;;;;;;4973172;28;20019;-77
2022/05/23 07:43:23;;;;;;;3.17;2.38;;;20.60;58.00;;;;;;4953254;28;20046;-75
2022/05/23 07:45:51;;;;;;;3.40;2.50;;;20.60;57.90;;;;;;4973266;28;20046;-76
2022/05/23 07:48:18;;;;;;;3.45;2.13;;;20.70;58.00;;;;;;4963523;28;20015;-75
2022/05/23 07:50:45;;;;;;;3.95;2.47;;;20.70;57.90;;;;;;4978461;28;20468;-76
2022/05/23 08:01:40;;;;;;;2.63;2.00;;;20.90;57.80;;;;;;4973429;28;20792;-75
2022/05/23 08:04:08;;;;;;;2.83;2.10;;;21.00;57.80;;;;;;4971679;28;20126;-75
2022/05/23 08:06:40;;;;;;;3.78;2.17;;;21.00;57.80;;;;;;4932480;28;20042;-75
2022/05/23 08:09:07;;;;;;;2.90;2.20;;;21.00;57.70;;;;;;4975959;28;20357;-75
2022/05/23 08:11:33;;;;;;;2.88;2.03;;;21.10;57.80;;;;;;4975946;28;20074;-77
2022/05/23 08:14:17;;;;;;;4.15;2.40;;;21.10;57.70;;;;;;4977491;28;20134;-75
2022/05/23 08:16:57;;;;;;;3.63;2.38;;;21.20;57.70;;;;;;4962100;28;20061;-75
2022/05/23 08:19:36;;;;;;;3.17;2.30;;;21.30;57.70;;;;;;4955214;28;20035;-76
2022/05/23 08:22:20;;;;;;;2.50;2.10;;;21.30;57.70;;;;;;4955956;28;20058;-76
2022/05/23 08:24:55;;;;;;;3.33;2.28;;;21.30;57.60;;;;;;4956575;28;20074;-74
2022/05/23 08:27:21;;;;;;;2.97;2.08;;;21.40;57.70;;;;;;4971497;28;20049;-75
2022/05/23 08:29:48;;;;;;;3.38;2.40;;;21.40;57.60;;;;;;4971483;28;20023;-75
2022/05/23 08:32:16;;;;;;;3.20;2.20;;;21.40;57.60;;;;;;4970168;28;20050;-76
2022/05/23 08:34:49;;;;;;;;;;;21.50;57.60;;;;;;4971093;28;20027;-76
2022/05/23 08:37:15;;;;;;;2.42;1.90;;;21.60;57.50;;;;;;4973027;28;19925;-75
2022/05/23 08:39:41;;;;;;;2.60;2.13;;;21.60;57.40;;;;;;4954522;28;20043;-75
2022/05/23 08:42:47;;;;;;;3.17;2.13;;;21.70;57.50;;;;;;4957837;28;20027;-74
2022/05/23 08:45:37;;;;;;;2.58;1.98;;;21.80;57.70;;;;;;4980395;28;20089;-75
2022/05/23 08:48:03;;;;;;;2.90;2.05;;;21.90;57.50;;;;;;4958438;28;20113;-74
2022/05/23 08:51:07;;;;;;;2.88;2.20;;;22.00;57.40;;;;;;4955507;28;20023;-75
2022/05/23 08:54:02;;;;;;;2.72;2.10;;;22.00;57.40;;;;;;4981687;28;20420;-75
2022/05/23 08:56:42;;;;;;;3.45;2.38;;;22.10;57.30;;;;;;4965866;28;20105;-75
2022/05/23 08:59:26;;;;;;;3.07;2.10;;;22.20;57.30;;;;;;4971078;28;20062;-75
2022/05/23 09:02:14;;;;;;;3.05;1.92;;;22.20;57.20;;;;;;4978122;28;20286;-77
2022/05/23 09:05:00;;;;;;;2.63;1.98;;;22.30;57.10;;;;;;4973606;28;20038;-75
2022/05/23 09:07:57;;;;;;;2.72;1.95;;;22.40;57.10;;;;;;4971703;28;20030;-75
2022/05/23 09:10:55;;;;;;;2.60;1.88;;;22.50;57.10;;;;;;4985210;28;20585;-74
2022/05/23 09:13:23;;;;;;;2.67;1.90;;;22.50;57.10;;;;;;4972429;28;20129;-73
2022/05/23 09:15:53;;;;;;;3.53;2.30;;;22.60;56.90;;;;;;4979310;28;20503;-73
2022/05/23 09:18:22;;;;;;;2.67;1.65;;;22.70;56.90;;;;;;4969857;28;20037;-75
2022/05/23 09:20:51;;;;;;;2.88;1.98;;;22.70;56.90;;;;;;4971544;28;20023;-77
2022/05/23 09:23:36;;;;;;;2.78;2.15;;;22.80;56.90;;;;;;4971903;28;20034;-75
2022/05/23 09:26:09;;;;;;;3.42;1.95;;;22.80;56.90;;;;;;4970948;28;20026;-75
2022/05/23 09:28:38;;;;;;;3.35;2.03;;;22.90;56.80;;;;;;4970199;28;20043;-77
2022/05/23 09:31:24;;;;;;;3.05;2.20;;;22.90;56.70;;;;;;4971259;28;20078;-76
2022/05/23 09:33:51;;;;;;;2.83;1.98;;;23.00;57.50;;;;;;4945962;28;20138;-79
2022/05/23 09:36:35;;;;;;;2.83;2.00;;;23.00;56.70;;;;;;4972351;28;20038;-75
2022/05/23 09:39:05;;;;;;;2.75;1.85;;;23.10;56.70;;;;;;4966779;28;20037;-75
2022/05/23 09:50:08;;;;;;;2.80;1.85;;;23.30;56.60;;;;;;4968146;28;20588;-76
2022/05/23 09:52:57;;;;;;;2.50;1.80;;;23.30;56.60;;;;;;4974801;28;20022;-76
2022/05/23 09:55:35;;;;;;;2.80;1.88;;;23.30;56.70;;;;;;4944721;28;20023;-76
2022/05/23 09:58:07;;;;;;;3.03;2.00;;;23.50;56.60;;;;;;4969004;28;20472;-76
2022/05/23 10:00:36;;;;;;;3.25;1.90;;;23.50;56.60;;;;;;4969589;28;20038;-79
2022/05/23 10:03:18;;;;;;;2.45;1.60;;;23.50;56.50;;;;;;4954593;28;20094;-75
2022/05/23 10:05:50;;;;;;;4.47;2.20;;;23.60;56.50;;;;;;4953727;28;20431;-76
2022/05/23 10:08:28;;;;;;;3.50;1.80;;;23.60;56.40;;;;;;4954321;28;20114;-75
2022/05/23 10:10:59;;;;;;;3.20;2.03;;;23.60;56.40;;;;;;4965803;28;20102;-79
2022/05/23 10:13:40;;;;;;;3.22;1.80;;;23.70;56.40;;;;;;4969695;28;20038;-75
2022/05/23 10:16:08;;;;;;;2.77;1.97;;;23.80;56.30;;;;;;4968686;28;20098;-75
2022/05/23 10:18:38;;;;;;;1.73;1.60;;;23.80;56.30;;;;;;4976369;28;20034;-76
2022/05/23 10:21:23;;;;;;;2.47;1.77;;;23.80;56.30;;;;;;4973202;28;20059;-74
2022/05/23 10:24:16;;;;;;;2.22;1.80;;;23.80;56.30;;;;;;4986648;28;20035;-75
2022/05/23 10:26:50;;;;;;;2.67;1.83;;;23.90;56.30;;;;;;4954100;28;20023;-75
2022/05/23 10:29:21;;;;;;;2.53;1.70;;;23.90;56.20;;;;;;4971266;28;20050;-77
2022/05/23 10:31:48;;;;;;;1.90;1.75;;;24.00;56.20;;;;;;4970298;28;20019;-75
2022/05/23 10:34:29;;;;;;;2.42;1.70;;;24.00;56.20;;;;;;4973422;28;20058;-74
2022/05/23 10:36:57;;;;;;;3.08;1.95;;;24.00;56.20;;;;;;4980261;28;20045;-77
2022/05/23 10:42:20;;;;;;;2.75;2.03;;;24.10;56.20;;;;;;4970280;28;20061;-75
2022/05/23 10:45:06;;;;;;;2.78;2.08;;;24.10;56.20;;;;;;4973448;28;20052;-75
2022/05/23 10:47:38;;;;;;;2.15;1.80;;;24.10;56.30;;;;;;4966143;28;20027;-75
2022/05/23 10:50:19;;;;;;;1.80;1.55;;;24.20;56.20;;;;;;4974528;28;20027;-75
2022/05/23 10:53:05;;;;;;;3.17;2.15;;;24.20;56.20;;;;;;4974031;28;20035;-77
2022/05/23 10:55:50;;;;;;;2.30;1.80;;;24.20;56.20;;;;;;4975023;28;20022;-76
2022/05/23 10:58:42;;;;;;;3.65;2.00;;;24.20;56.10;;;;;;4970232;28;20121;-75
2022/05/23 11:01:20;;;;;;;2.28;1.83;;;24.20;56.10;;;;;;4973975;28;20559;-77
2022/05/23 11:04:01;;;;;;;3.10;1.75;;;24.30;56.10;;;;;;4977042;28;20034;-76
2022/05/23 11:06:39;;;;;;;2.72;1.75;;;24.30;56.10;;;;;;4969847;28;20367;-75
2022/05/23 11:09:17;;;;;;;2.50;1.92;;;24.40;56.20;;;;;;4979694;28;20031;-76
2022/05/23 11:11:51;;;;;;;2.70;1.90;;;24.40;56.10;;;;;;4975737;28;20030;-76
2022/05/23 11:14:26;;;;;;;3.13;2.00;;;24.40;56.10;;;;;;4976016;28;20046;-76
2022/05/23 11:17:15;;;;;;;3.72;1.90;;;24.40;56.00;;;;;;4975687;28;20022;-76
2022/05/23 11:19:40;;;;;;;2.00;1.80;;;24.50;56.10;;;;;;4986761;28;20019;-76
2022/05/23 11:22:14;;;;;;;2.72;1.88;;;24.60;56.00;;;;;;4973484;28;20042;-75
2022/05/23 11:24:56;;;;;;;2.47;2.00;;;24.60;56.10;;;;;;4974524;28;20125;-75
2022/05/23 11:35:59;;;;;;;3.28;1.92;;;24.70;56.00;;;;;;4955725;28;20061;-77
2022/05/23 11:38:27;;;;;;;2.50;1.90;;;24.70;56.00;;;;;;4973531;28;20047;-76
2022/05/23 11:41:10;;;;;;;2.55;1.90;;;24.80;56.70;;;;;;4975480;28;20018;-76
2022/05/23 11:43:36;;;;;;;2.65;1.90;;;24.80;56.10;;;;;;4976122;28;20023;-76
2022/05/23 11:46:05;;;;;;;2.88;2.28;;;24.80;56.00;;;;;;4945404;28;20030;-77
2022/05/23 11:48:37;;;;;;;2.50;1.90;;;24.90;56.00;;;;;;4975789;28;20019;-76
2022/05/23 11:51:12;;;;;;;2.75;1.90;;;24.90;56.00;;;;;;4973736;28;20038;-76
2022/05/23 11:53:43;;;;;;;4.25;2.05;;;25.00;56.00;;;;;;4958702;28;20050;-77
2022/05/23 11:56:11;;;;;;;2.90;1.75;;;25.00;55.90;;;;;;4973562;28;20034;-77
2022/05/23 11:58:48;;;;;;;2.63;2.03;;;25.00;55.90;;;;;;4958369;28;20027;-78
2022/05/23 12:01:17;;;;;;;3.25;1.77;;;25.10;55.90;;;;;;4974625;28;20038;-77
2022/05/23 12:04:08;;;;;;;2.55;1.70;;;25.10;55.90;;;;;;4976090;28;20475;-76
2022/05/23 12:06:41;;;;;;;2.33;1.65;;;25.20;56.00;;;;;;4959962;28;20038;-79
2022/05/23 12:09:25;;;;;;;2.45;1.77;;;25.20;56.00;;;;;;4977221;28;20034;-78
2022/05/23 12:12:12;;;;;;;2.42;1.55;;;25.20;56.00;;;;;;4976561;28;20459;-78
2022/05/23 12:14:42;;;;;;;1.70;1.55;;;25.30;55.90;;;;;;4969772;28;20051;-76
2022/05/23 12:17:27;;;;;;;2.97;1.73;;;25.30;55.90;;;;;;4974288;28;20038;-76
2022/05/23 12:19:56;;;;;;;2.65;1.70;;;25.30;56.00;;;;;;4973020;28;20015;-77
2022/05/23 12:22:32;;;;;;;2.45;1.60;;;25.40;56.00;;;;;;4972858;28;20519;-78
2022/05/23 12:25:07;;;;;;;1.67;1.55;;;25.40;56.00;;;;;;4979914;28;20039;-77
2022/05/23 12:27:37;;;;;;;1.95;1.60;;;25.40;56.00;;;;;;4977919;28;20097;-77
2022/05/23 12:30:20;;;;;;;1.98;1.55;;;25.40;55.90;;;;;;4973060;28;20179;-75
2022/05/23 12:32:58;;;;;;;1.95;1.60;;;25.50;56.00;;;;;;4973972;28;20046;-75
2022/05/23 12:35:42;;;;;;;1.80;1.45;;;25.50;56.00;;;;;;4971183;28;20113;-75
2022/05/23 12:38:26;;;;;;;2.22;1.40;;;25.50;56.00;;;;;;4966715;28;20042;-75
2022/05/23 12:41:13;;;;;;;2.63;1.27;;;25.60;55.90;;;;;;4971354;28;20466;-75
2022/05/23 12:44:28;;;;;;;2.35;1.67;;;25.60;56.00;;;;;;4972567;28;20122;-75
2022/05/23 12:47:07;;;;;;;2.00;1.50;;;25.60;56.00;;;;;;4947079;28;20023;-75
2022/05/23 12:50:00;;;;;;;2.40;1.60;;;25.70;56.00;;;;;;4972411;28;20030;-75
2022/05/23 12:53:02;;;;;;;1.98;1.50;;;25.70;56.00;;;;;;4980475;28;20482;-74
2022/05/23 12:55:48;;;;;;;2.50;1.50;;;25.70;56.00;;;;;;4968439;28;20092;-76
2022/05/23 12:58:47;;;;;;;2.97;1.65;;;25.80;56.10;;;;;;4971287;28;20170;-75
2022/05/23 13:01:19;;;;;;;2.20;1.40;;;25.80;56.00;;;;;;4977629;28;20094;-75
2022/05/23 13:03:52;;;;;;;1.95;1.52;;;25.80;56.00;;;;;;4970679;28;20498;-76
2022/05/23 13:06:44;;;;;;;1.52;1.42;;;25.90;56.00;;;;;;4972970;28;20038;-75
2022/05/23 13:09:41;;;;;;;2.58;1.42;;;25.90;56.00;;;;;;4971173;28;20021;-77
2022/05/23 13:12:16;;;;;;;1.65;1.50;;;25.90;56.00;;;;;;4971082;28;20039;-76
2022/05/23 13:14:49;;;;;;;2.75;1.50;;;26.00;55.90;;;;;;4970934;28;20106;-74
2022/05/23 13:17:45;;;;;;;2.03;1.53;;;26.00;55.90;;;;;;4970462;28;20066;-75
2022/05/23 13:23:24;;;;;;;2.00;1.70;;;26.00;55.80;;;;;;4969230;28;20158;-75
2022/05/23 13:25:50;;;;;;;1.70;1.40;;;26.10;55.90;;;;;;4971038;28;20035;-75
2022/05/23 13:28:18;;;;;;;2.03;1.50;;;26.10;55.80;;;;;;4972756;28;20030;-75
2022/05/23 13:30:56;;;;;;;2.10;1.52;;;26.10;55.90;;;;;;4971089;28;20023;-75
2022/05/23 13:33:32;;;;;;;2.53;1.48;;;26.20;56.00;;;;;;4961822;28;20026;-76
2022/05/23 13:36:05;;;;;;;1.58;1.42;;;26.20;55.90;;;;;;4979424;28;20022;-76
2022/05/23 13:38:37;;;;;;;2.75;1.55;;;26.20;55.90;;;;;;4987787;28;20047;-75
2022/05/23 13:41:05;;;;;;;1.88;1.48;;;26.20;55.90;;;;;;4955404;28;20023;-75
2022/05/23 13:43:44;;;;;;;2.40;1.50;;;26.20;55.90;;;;;;4972046;28;20106;-76
2022/05/23 13:46:22;;;;;;;1.73;1.60;;;26.20;55.90;;;;;;4972413;28;20018;-76
2022/05/23 13:48:53;;;;;;;2.05;1.75;;;26.30;55.90;;;;;;4979757;28;20035;-75
2022/05/23 13:51:28;;;;;;;1.83;1.38;;;26.30;55.90;;;;;;4971618;28;20091;-74
2022/05/23 13:54:12;;;;;;;1.63;1.42;;;26.30;55.80;;;;;;4970699;28;20049;-75
2022/05/23 13:56:44;;;;;;;2.55;1.30;;;26.30;55.90;;;;;;4971391;28;20094;-75
2022/05/23 13:59:16;;;;;;;1.65;1.27;;;26.30;55.80;;;;;;4972603;28;20030;-75
2022/05/23 14:01:51;;;;;;;1.98;1.42;;;26.30;55.80;;;;;;4972918;28;20031;-76
2022/05/23 14:04:21;;;;;;;2.15;1.60;;;26.30;55.80;;;;;;4980339;28;20038;-77
2022/05/23 14:06:54;;;;;;;2.20;1.40;;;26.30;55.80;;;;;;4988301;28;20054;-77
2022/05/23 14:09:23;;;;;;;2.08;1.40;;;26.30;55.80;;;;;;4974601;28;20031;-77
2022/05/23 14:11:53;;;;;;;1.77;1.35;;;26.30;55.80;;;;;;4955985;28;20027;-78
2022/05/23 14:14:26;;;;;;;2.50;1.60;;;26.30;55.80;;;;;;4973983;28;20054;-76
2022/05/23 14:17:02;;;;;;;2.10;1.50;;;26.30;55.80;;;;;;4986689;28;20464;-76
2022/05/23 14:19:47;;;;;;;1.90;1.60;;;26.20;55.80;;;;;;4981188;28;20034;-78
2022/05/23 14:22:30;;;;;;;2.20;1.58;;;26.20;55.90;;;;;;4959332;28;20077;-76
2022/05/23 14:25:00;;;;;;;2.50;1.70;;;26.20;56.00;;;;;;4975791;28;20045;-77
2022/05/23 14:27:30;;;;;;;2.50;1.52;;;26.30;56.10;;;;;;4975500;28;20031;-76